Rechercher aéroport 
image banner adimage banner adimage banner ad
image banner ad

50CN - Palmdale Medical Center

Situé à Palmdale, United States

ICAO - 50CN, IATA -

Données fournies par Airmate  

Information générale

Coordonnées: N34°34'56" W118°8'42"
Élévation : 2743 feet MSL.
 
Voir autres Aéroports à California

Données opérationnelles

Special qualification required
Heure actuelle UTC:
Heure actuelle locale:
Météo à : KPMD - Palmdale Usaf Plant 42 ( 8 km )
METAR: KPMD 291353Z 18003KT 10SM CLR 23/07 A3003 RMK AO2 SLP137 T02330072
TAF: KPMD 291146Z 2912/3012 VRB05KT P6SM SKC FM291900 23010KT P6SM SKC FM292300 23015G23KT P6SM SKC FM300300 23012KT P6SM SKC FM300800 21007KT P6SM SKC
Voir NOTAMs / SUP AIP / TFR affectant cet aéroport [VIEW]
Fréquences de communication: [VIEW]

Pistes:

Coordonnées de l'aéroport

Adresse: Palmdale United States

Vue satellite de 50CN